Time;durP1;ratioP1;P1;durP2;ratioP2;P2;SDS_P1;SDS_P2;PMS_P1;PMS_P2;Temp;Humidity;BMP_temperature;BMP_pressure;BME280_temperature;BME280_humidity;BME280_pressure;Samples;Min_cycle;Max_cycle;Signal;HPM_P1;HPM_P2
2022/08/30 00:03:44;;;;;;;;;20.00;12.00;;;;;26.72;100.00;101333.31;5040549;28;51382;-52
2022/08/30 00:06:30;;;;;;;;;16.25;14.00;;;;;26.61;100.00;101323.91;5040792;28;51204;-49
2022/08/30 00:09:14;;;;;;;;;14.75;10.75;;;;;26.69;100.00;101345.28;5040494;28;51307;-50
2022/08/30 00:12:00;;;;;;;;;16.00;13.00;;;;;26.66;100.00;101350.94;5040687;28;52062;-47
2022/08/30 00:14:44;;;;;;;;;21.75;12.50;;;;;26.69;100.00;101352.59;5035570;28;51032;-51
2022/08/30 00:17:29;;;;;;;;;16.25;11.75;;;;;26.73;100.00;101356.88;5040401;28;51371;-51
2022/08/30 00:20:17;;;;;;;;;14.50;13.75;;;;;26.73;100.00;101348.69;5039248;28;51126;-49
2022/08/30 00:23:02;;;;;;;;;19.75;15.00;;;;;26.74;100.00;101355.91;5040285;28;51219;-51
2022/08/30 00:25:47;;;;;;;;;16.25;14.50;;;;;26.75;100.00;101361.28;5040650;28;51137;-50
2022/08/30 00:28:32;;;;;;;;;12.75;12.25;;;;;26.76;100.00;101362.16;5040174;28;51231;-51
2022/08/30 00:31:17;;;;;;;;;15.75;12.00;;;;;26.76;100.00;101363.03;5039990;28;51127;-49
2022/08/30 00:34:01;;;;;;;;;16.75;9.75;;;;;26.80;100.00;101366.50;5040426;28;51216;-51
2022/08/30 00:36:46;;;;;;;;;21.25;14.75;;;;;26.82;100.00;101369.13;5040137;28;51121;-49
2022/08/30 00:39:31;;;;;;;;;17.75;14.25;;;;;26.84;100.00;101369.91;5040281;28;51004;-50
2022/08/30 00:42:17;;;;;;;;;17.00;12.00;;;;;26.85;100.00;101368.94;5039785;28;51190;-49
2022/08/30 00:45:15;;;;;;;;;17.50;15.00;;;;;26.86;100.00;101363.34;5040142;28;51554;-47
2022/08/30 00:48:00;;;;;;;;;16.50;13.00;;;;;26.89;100.00;101378.66;5039985;28;51191;-52
2022/08/30 00:50:48;;;;;;;;;14.00;11.50;;;;;26.87;100.00;101373.31;5040255;28;51389;-50
2022/08/30 00:53:39;;;;;;;;;14.25;10.00;;;;;26.89;100.00;101370.47;5039455;28;51029;-51
2022/08/30 00:56:24;;;;;;;;;13.25;11.25;;;;;26.84;100.00;101375.34;5038703;28;51610;-49
2022/08/30 00:59:09;;;;;;;;;19.50;14.75;;;;;26.82;100.00;101350.91;5040001;28;51155;-49
2022/08/30 01:01:54;;;;;;;;;12.75;11.75;;;;;26.89;100.00;101370.47;5039499;28;51096;-48
2022/08/30 01:04:41;;;;;;;;;18.75;14.25;;;;;26.84;100.00;101367.16;5039875;28;51037;-50
2022/08/30 01:07:25;;;;;;;;;15.75;12.75;;;;;26.94;100.00;101372.91;5038423;28;51436;-47
2022/08/30 01:10:12;;;;;;;;;13.75;11.25;;;;;26.93;100.00;101361.13;5034508;28;51739;-49
2022/08/30 01:12:57;;;;;;;;;19.00;12.50;;;;;26.89;100.00;101359.56;5038367;28;51165;-50
2022/08/30 01:15:42;;;;;;;;;14.00;10.75;;;;;26.91;100.00;101363.97;5038587;28;51462;-49
2022/08/30 01:18:27;;;;;;;;;8.75;7.75;;;;;26.89;100.00;101344.06;5038233;28;51486;-48
2022/08/30 01:21:25;;;;;;;;;18.00;12.75;;;;;26.88;100.00;101349.59;5039530;28;51078;-47
2022/08/30 01:24:09;;;;;;;;;13.50;11.00;;;;;26.88;100.00;101349.59;5038392;28;51255;-50
2022/08/30 01:26:54;;;;;;;;;14.00;13.25;;;;;26.86;100.00;101354.31;5039299;28;51270;-51
2022/08/30 01:29:39;;;;;;;;;13.75;11.75;;;;;26.85;100.00;101338.91;5038608;28;51050;-52
2022/08/30 01:32:27;;;;;;;;;15.00;11.00;;;;;26.84;100.00;101340.72;5039281;28;51216;-51
2022/08/30 01:35:15;;;;;;;;;19.75;14.00;;;;;26.81;100.00;101338.22;5038324;28;51385;-50
2022/08/30 01:38:00;;;;;;;;;17.25;13.50;;;;;26.84;100.00;101342.59;5039190;28;51148;-50
2022/08/30 01:40:45;;;;;;;;;16.00;12.25;;;;;26.79;100.00;101331.97;5038300;28;51149;-52
2022/08/30 01:43:30;;;;;;;;;11.75;11.00;;;;;26.83;100.00;101340.84;5038750;28;51504;-49
2022/08/30 01:46:18;;;;;;;;;18.25;15.25;;;;;26.84;100.00;101345.31;5039351;28;51121;-50
2022/08/30 01:49:09;;;;;;;;;16.25;13.50;;;;;26.84;100.00;101337.13;5039319;28;51498;-50
2022/08/30 01:51:54;;;;;;;;;16.50;12.75;;;;;26.80;100.00;101327.38;5038619;28;51134;-51
2022/08/30 01:54:40;;;;;;;;;23.50;13.00;;;;;26.84;100.00;101342.59;5039488;28;51182;-48
2022/08/30 01:57:27;;;;;;;;;11.50;11.00;;;;;26.84;100.00;101348.91;5039010;28;51556;-49
2022/08/30 02:00:13;;;;;;;;;17.75;11.50;;;;;26.85;100.00;101338.91;5039409;28;51469;-51
2022/08/30 02:02:57;;;;;;;;;17.75;12.25;;;;;26.75;100.00;101317.59;5038499;28;51178;-50
2022/08/30 02:05:42;;;;;;;;;16.75;11.75;;;;;26.84;100.00;101328.94;5039284;28;51223;-49
2022/08/30 02:08:26;;;;;;;;;18.50;12.50;;;;;26.83;100.00;101324.47;5038615;28;51081;-48
2022/08/30 02:11:12;;;;;;;;;18.25;13.50;;;;;26.81;100.00;101332.75;5038881;28;51194;-48
2022/08/30 02:13:56;;;;;;;;;15.75;12.25;;;;;26.80;100.00;101328.28;5038852;28;51183;-48
2022/08/30 02:16:40;;;;;;;;;13.25;12.00;;;;;26.77;100.00;101331.16;5038913;28;51177;-48
2022/08/30 02:19:25;;;;;;;;;14.00;9.75;;;;;26.78;100.00;101322.03;5032456;28;51147;-51
2022/08/30 02:22:10;;;;;;;;;15.00;12.25;;;;;26.79;100.00;101325.63;5038329;28;51194;-49
2022/08/30 02:24:54;;;;;;;;;17.50;13.00;;;;;26.78;100.00;101319.28;5038998;28;51464;-49
2022/08/30 02:27:39;;;;;;;;;21.00;12.00;;;;;26.78;100.00;101310.19;5038754;28;51139;-52
2022/08/30 02:30:23;;;;;;;;;15.00;12.25;;;;;26.77;100.00;101312.03;5038017;28;51066;-49
2022/08/30 02:33:07;;;;;;;;;18.25;14.25;;;;;26.74;100.00;101304.94;5038488;28;51467;-51
2022/08/30 02:35:52;;;;;;;;;19.50;14.00;;;;;26.71;100.00;101306.97;5038798;28;51116;-48
2022/08/30 02:38:36;;;;;;;;;11.25;11.00;;;;;26.74;100.00;101307.66;5038799;28;51359;-49
2022/08/30 02:41:22;;;;;;;;;20.75;12.50;;;;;26.74;100.00;101302.19;5038378;28;51289;-52
2022/08/30 02:44:07;;;;;;;;;16.00;11.00;;;;;26.73;100.00;101286.78;5038677;28;51014;-51
2022/08/30 02:46:52;;;;;;;;;15.50;10.75;;;;;26.74;100.00;101301.31;5038809;28;51159;-51
2022/08/30 02:49:36;;;;;;;;;16.75;12.25;;;;;26.76;100.00;101311.19;5038613;28;51251;-51
2022/08/30 02:52:21;;;;;;;;;18.50;13.25;;;;;26.76;100.00;101300.25;5038299;28;51185;-49
2022/08/30 02:55:07;;;;;;;;;14.50;12.75;;;;;26.78;100.00;101305.63;5040827;28;51056;-50
2022/08/30 02:57:51;;;;;;;;;25.00;13.75;;;;;26.80;100.00;101297.34;5042235;28;51029;-52
2022/08/30 03:00:36;;;;;;;;;17.00;13.75;;;;;26.79;100.00;101290.13;5040778;28;51247;-49
2022/08/30 03:03:20;;;;;;;;;14.50;13.25;;;;;26.79;100.00;101290.13;5042092;28;51196;-52
2022/08/30 03:06:05;;;;;;;;;18.50;13.50;;;;;26.78;100.00;101294.72;5040929;28;51077;-50
2022/08/30 03:08:50;;;;;;;;;18.00;13.00;;;;;26.79;100.00;101298.31;5041981;28;51057;-49
2022/08/30 03:11:35;;;;;;;;;12.75;12.50;;;;;26.79;100.00;101292.84;5041692;28;51231;-48
2022/08/30 03:14:19;;;;;;;;;19.00;14.25;;;;;26.80;100.00;101291.88;5041778;28;51390;-52
2022/08/30 03:17:05;;;;;;;;;18.25;12.25;;;;;26.80;100.00;101289.16;5041724;28;51084;-47
2022/08/30 03:19:50;;;;;;;;;18.00;13.75;;;;;26.76;100.00;101283.88;5041826;28;51100;-49
2022/08/30 03:22:34;;;;;;;;;12.50;10.50;;;;;26.76;100.00;101291.16;5041447;28;51571;-47
2022/08/30 03:25:20;;;;;;;;;17.75;14.25;;;;;26.73;100.00;101303.16;5041759;28;51191;-49
2022/08/30 03:28:05;;;;;;;;;20.00;14.25;;;;;26.60;100.00;101278.50;5041608;28;51403;-49
2022/08/30 03:30:50;;;;;;;;;14.50;12.00;;;;;26.71;100.00;101305.09;5040606;28;51349;-50
2022/08/30 03:33:35;;;;;;;;;14.00;12.25;;;;;26.72;100.00;101301.41;5041310;28;51071;-52
2022/08/30 03:36:20;;;;;;;;;15.00;11.75;;;;;26.70;100.00;101303.34;5041335;28;51195;-47
2022/08/30 03:39:06;;;;;;;;;12.25;11.75;;;;;26.70;100.00;101314.28;5035479;28;51685;-53
2022/08/30 03:41:51;;;;;;;;;13.50;10.50;;;;;26.70;100.00;101306.09;5039835;28;51179;-51
2022/08/30 03:44:35;;;;;;;;;16.25;11.75;;;;;26.67;100.00;101305.41;5041337;28;51328;-50
2022/08/30 03:47:20;;;;;;;;;19.25;13.25;;;;;26.71;100.00;101313.31;5041125;28;51096;-49
2022/08/30 03:50:06;;;;;;;;;20.75;16.25;;;;;26.74;100.00;101312.22;5034426;28;51052;-50
2022/08/30 03:52:50;;;;;;;;;14.75;11.25;;;;;26.70;100.00;101314.28;5040879;28;51241;-49
2022/08/30 03:55:34;;;;;;;;;15.00;11.00;;;;;26.76;100.00;101322.09;5040753;28;51128;-48
2022/08/30 03:58:19;;;;;;;;;15.00;12.50;;;;;26.78;100.00;101319.28;5041150;28;51179;-48
2022/08/30 04:01:03;;;;;;;;;12.50;10.00;;;;;26.78;100.00;101316.56;5040929;28;51140;-51
2022/08/30 04:03:48;;;;;;;;;14.75;12.50;;;;;26.75;100.00;101311.25;5040721;28;51141;-51
2022/08/30 04:06:32;;;;;;;;;21.25;18.00;;;;;26.75;100.00;101309.41;5040314;28;51107;-49
2022/08/30 04:09:17;;;;;;;;;14.75;13.00;;;;;26.73;100.00;101305.91;5039652;28;53228;-49
2022/08/30 04:12:02;;;;;;;;;21.25;15.75;;;;;26.73;100.00;101307.72;5040179;28;51157;-52
2022/08/30 04:14:47;;;;;;;;;16.75;13.25;;;;;26.74;100.00;101306.75;5040484;28;51204;-51
2022/08/30 04:17:31;;;;;;;;;16.50;14.25;;;;;26.66;100.00;101293.63;5036155;28;51445;-46
2022/08/30 04:20:16;;;;;;;;;16.00;13.25;;;;;26.68;100.00;101305.28;5040417;28;51060;-51
2022/08/30 04:23:01;;;;;;;;;9.75;7.25;;;;;26.66;100.00;101310.00;5040654;28;51154;-48
2022/08/30 04:25:45;;;;;;;;;18.50;13.25;;;;;26.64;100.00;101300.13;5040427;28;51215;-49
2022/08/30 04:28:30;;;;;;;;;22.25;13.25;;;;;26.66;100.00;101309.09;5040520;28;51424;-49
2022/08/30 04:31:17;;;;;;;;;14.25;11.75;;;;;26.67;100.00;101313.59;5040167;28;51092;-48
2022/08/30 04:34:02;;;;;;;;;20.50;14.75;;;;;26.66;100.00;101315.47;5040618;28;51135;-51
2022/08/30 04:36:48;;;;;;;;;17.00;13.25;;;;;26.66;100.00;101322.75;5039909;28;52066;-48
2022/08/30 04:39:33;;;;;;;;;12.25;10.25;;;;;26.66;100.00;101326.38;5039121;28;51055;-49
2022/08/30 04:42:18;;;;;;;;;15.00;12.75;;;;;26.65;100.00;101329.19;5040088;28;51161;-48
2022/08/30 04:45:08;;;;;;;;;15.25;12.25;;;;;26.67;100.00;101329.97;5039817;28;51208;-49
2022/08/30 04:47:52;;;;;;;;;20.00;16.25;;;;;26.68;100.00;101329.00;5040143;28;51252;-50
2022/08/30 04:50:37;;;;;;;;;21.25;17.50;;;;;26.67;100.00;101328.09;5040141;28;51168;-49
2022/08/30 04:53:22;;;;;;;;;21.00;17.75;;;;;26.66;100.00;101330.94;5039949;28;51339;-48
2022/08/30 04:56:08;;;;;;;;;19.75;15.00;;;;;26.67;100.00;101324.50;5039650;28;51475;-51
2022/08/30 04:58:54;;;;;;;;;18.75;14.00;;;;;26.67;100.00;101328.09;5040190;28;51069;-50
2022/08/30 05:01:39;;;;;;;;;14.50;9.75;;;;;26.66;100.00;101320.91;5027281;28;51246;-48
2022/08/30 05:04:23;;;;;;;;;17.25;14.75;;;;;26.65;100.00;101321.00;5036169;28;51160;-48
2022/08/30 05:07:08;;;;;;;;;20.00;12.00;;;;;26.64;100.00;101328.31;5039349;28;51421;-50
2022/08/30 05:09:52;;;;;;;;;16.25;12.00;;;;;26.55;100.00;101309.78;5039428;28;51025;-50
2022/08/30 05:12:36;;;;;;;;;9.75;7.00;;;;;26.59;100.00;101320.41;5039752;28;51028;-49
2022/08/30 05:15:21;;;;;;;;;11.50;8.50;;;;;26.58;100.00;101309.56;5039533;28;51116;-51
2022/08/30 05:18:07;;;;;;;;;19.25;12.75;;;;;26.54;100.00;101308.91;5038687;28;51480;-50
2022/08/30 05:21:10;;;;;;;;;13.25;11.00;;;;;26.62;100.00;101322.06;5035248;28;51098;-48
2022/08/30 05:23:56;;;;;;;;;19.50;14.00;;;;;26.63;100.00;101321.09;5039443;28;51489;-48
2022/08/30 05:26:41;;;;;;;;;21.25;15.00;;;;;26.64;100.00;101316.50;5039164;28;51263;-50
2022/08/30 05:29:26;;;;;;;;;19.25;15.75;;;;;26.66;100.00;101326.38;5039507;28;51139;-49
2022/08/30 05:32:10;;;;;;;;;18.50;15.00;;;;;26.66;100.00;101323.66;5039166;28;51232;-49
2022/08/30 05:34:54;;;;;;;;;18.00;12.00;;;;;26.66;100.00;101318.19;5039257;28;51103;-51
2022/08/30 05:37:39;;;;;;;;;17.75;13.75;;;;;26.66;100.00;101315.47;5039070;28;51112;-50
2022/08/30 05:40:23;;;;;;;;;18.50;14.00;;;;;26.64;100.00;101309.22;5038804;28;51108;-51
2022/08/30 05:43:17;;;;;;;;;14.50;12.00;;;;;26.68;100.00;101312.63;5028418;28;51216;-48
2022/08/30 05:46:05;;;;;;;;;16.50;13.25;;;;;26.66;100.00;101315.47;5053310;28;51215;-48
2022/08/30 05:48:49;;;;;;;;;17.00;12.00;;;;;26.66;100.00;101314.56;5039302;28;51088;-49
2022/08/30 05:51:37;;;;;;;;;14.50;12.50;;;;;26.68;100.00;101312.63;5037215;28;51088;-49
2022/08/30 05:54:21;;;;;;;;;18.25;14.50;;;;;26.67;100.00;101324.50;5034763;28;51093;-50
2022/08/30 05:57:06;;;;;;;;;15.25;14.50;;;;;26.65;100.00;101332.81;5039540;28;51052;-50
2022/08/30 05:59:50;;;;;;;;;15.50;11.25;;;;;26.67;100.00;101329.97;5039253;28;51171;-49
2022/08/30 06:02:35;;;;;;;;;16.25;15.50;;;;;26.69;100.00;101341.69;5038980;28;51108;-50
2022/08/30 06:05:19;;;;;;;;;19.75;14.50;;;;;26.69;100.00;101350.72;5038946;28;51158;-50
2022/08/30 06:08:04;;;;;;;;;19.75;14.25;;;;;26.69;100.00;101344.41;5038617;28;51545;-48
2022/08/30 06:10:48;;;;;;;;;17.25;13.50;;;;;26.73;100.00;101346.84;5038359;28;51135;-49
2022/08/30 06:13:33;;;;;;;;;21.25;15.50;;;;;26.77;100.00;101336.59;5036658;28;51196;-52
2022/08/30 06:16:19;;;;;;;;;13.75;8.75;;;;;26.78;100.00;101326.59;5038673;28;51191;-52
2022/08/30 06:19:05;;;;;;;;;19.25;13.00;;;;;26.78;100.00;101326.59;5031549;28;51052;-49
2022/08/30 06:21:51;;;;;;;;;8.00;6.25;;;;;26.78;100.00;101335.66;5038111;28;51040;-49
2022/08/30 06:24:36;;;;;;;;;15.75;13.00;;;;;26.79;100.00;101322.88;5038442;28;51225;-48
2022/08/30 06:27:20;;;;;;;;;15.50;13.50;;;;;26.81;100.00;101319.09;5038042;28;51463;-50
2022/08/30 06:30:09;;;;;;;;;18.75;12.75;;;;;26.82;100.00;101325.44;5041194;28;51075;-49
2022/08/30 06:32:54;;;;;;;;;15.25;12.75;;;;;26.85;100.00;101323.38;5042409;28;51158;-51
2022/08/30 06:35:39;;;;;;;;;16.00;12.75;;;;;26.88;100.00;101325.91;5041785;28;51112;-47
2022/08/30 06:38:23;;;;;;;;;15.75;12.75;;;;;26.89;100.00;101330.41;5042413;28;51150;-49
2022/08/30 06:41:13;;;;;;;;;13.00;12.25;;;;;26.94;100.00;101334.69;5039896;28;51329;-49
2022/08/30 06:44:00;;;;;;;;;19.25;14.75;;;;;27.00;100.00;101337.03;5041648;28;51195;-48
2022/08/30 06:46:45;;;;;;;;;21.50;15.25;;;;;27.10;100.00;101342.78;5041666;28;51555;-51
2022/08/30 06:49:30;;;;;;;;;13.50;11.00;;;;;27.12;100.00;101344.44;5041778;28;50985;-48
2022/08/30 06:52:14;;;;;;;;;17.00;14.00;;;;;27.22;100.00;101344.72;5041414;28;51186;-48
2022/08/30 06:54:59;;;;;;;;;20.50;15.00;;;;;27.32;100.00;101347.75;5041733;28;51119;-49
2022/08/30 06:57:44;;;;;;;;;18.00;14.50;;;;;27.40;100.00;101352.72;5034379;28;51045;-47
2022/08/30 07:00:29;;;;;;;;;13.00;11.00;;;;;27.42;100.00;101354.38;5041660;28;51178;-50
2022/08/30 07:03:13;;;;;;;;;20.25;14.00;;;;;27.44;100.00;101355.19;5042233;28;51107;-49
2022/08/30 07:05:58;;;;;;;;;16.75;11.25;;;;;27.46;100.00;101360.53;5041788;28;51156;-49
2022/08/30 07:08:42;;;;;;;;;15.75;10.25;;;;;27.50;100.00;101370.31;5041572;28;51089;-51
2022/08/30 07:11:35;;;;;;;;;23.75;16.75;;;;;27.51;100.00;101377.53;5041968;28;51422;-50
2022/08/30 07:14:21;;;;;;;;;19.00;13.50;;;;;27.49;100.00;101384.94;5040131;28;51093;-48
2022/08/30 07:18:49;;;;;;;;;18.50;11.25;;;;;27.38;100.00;101369.19;5041975;28;51395;-49
2022/08/30 07:20:12;;;;;;;;;16.50;12.25;;;;;27.47;100.00;101381.44;5039230;28;51124;-51
2022/08/30 07:22:56;;;;;;;;;17.00;15.00;;;;;27.50;100.00;101382.09;5041362;28;51093;-51
2022/08/30 07:25:41;;;;;;;;;20.00;14.75;;;;;27.53;100.00;101379.19;5041340;28;51088;-48
2022/08/30 07:28:25;;;;;;;;;19.25;13.75;;;;;27.49;100.00;101387.69;5040977;28;51116;-48
2022/08/30 07:31:10;;;;;;;;;16.75;14.00;;;;;27.53;100.00;101397.41;5032921;28;51123;-50
2022/08/30 07:33:56;;;;;;;;;15.00;14.25;;;;;27.60;100.00;101406.09;5039057;28;51197;-49
2022/08/30 07:36:40;;;;;;;;;12.00;12.00;;;;;27.60;100.00;101408.81;5041322;28;51598;-47
2022/08/30 07:39:25;;;;;;;;;10.00;10.00;;;;;27.59;100.00;101424.38;5041100;28;51234;-50
2022/08/30 07:42:09;;;;;;;;;28.75;25.50;;;;;27.62;100.00;101429.63;5039958;28;51452;-50
2022/08/30 07:44:53;;;;;;;;;17.50;10.50;;;;;27.62;100.00;101426.88;5038969;28;51305;-48
2022/08/30 07:47:38;;;;;;;;;14.50;11.25;;;;;27.72;100.00;101421.69;5039225;28;51524;-47
2022/08/30 07:50:23;;;;;;;;;17.50;13.50;;;;;27.82;100.00;101436.53;5038951;28;51150;-51
2022/08/30 07:53:07;;;;;;;;;19.75;14.50;;;;;27.90;100.00;101435.13;5039162;28;51159;-50
2022/08/30 07:55:52;;;;;;;;;16.75;12.75;;;;;27.93;100.00;101427.63;5038655;28;51810;-50
2022/08/30 07:58:38;;;;;;;;;15.75;12.50;;;;;28.01;100.00;101435.28;5040688;28;51433;-50
2022/08/30 08:01:23;;;;;;;;;17.25;14.75;;;;;28.08;100.00;101444.91;5040970;28;51220;-46
2022/08/30 08:04:07;;;;;;;;;19.50;13.50;;;;;28.09;100.00;101448.50;5041082;28;51156;-48
2022/08/30 08:06:51;;;;;;;;;19.00;15.25;;;;;28.08;100.00;101455.84;5040696;28;51438;-48
2022/08/30 08:09:37;;;;;;;;;23.75;15.50;;;;;28.04;100.00;101450.66;5040566;28;51105;-49
2022/08/30 08:12:22;;;;;;;;;26.00;21.75;;;;;28.12;100.00;101460.13;5040918;28;51751;-49
2022/08/30 08:15:07;;;;;;;;;34.00;26.00;;;;;28.10;100.00;101463.94;5040445;28;51235;-51
2022/08/30 08:17:52;;;;;;;;;20.00;18.25;;;;;28.03;100.00;101463.44;5040692;28;51159;-51
2022/08/30 08:20:37;;;;;;;;;15.75;13.25;;;;;27.95;100.00;101463.06;5040331;28;51234;-49
2022/08/30 08:23:21;;;;;;;;;14.25;12.50;;;;;27.83;100.00;101460.16;5039585;28;51170;-48
2022/08/30 08:26:06;;;;;;;;;28.75;19.50;;;;;27.88;100.00;101465.31;5040353;28;51078;-49
2022/08/30 08:28:50;;;;;;;;;21.25;19.00;;;;;27.86;100.00;101469.16;5040760;28;51091;-49
2022/08/30 08:31:35;;;;;;;;;16.25;10.25;;;;;27.88;100.00;101479.00;5040215;28;51140;-48
2022/08/30 08:34:22;;;;;;;;;14.00;10.00;;;;;27.88;100.00;101480.88;5040283;28;51102;-51
2022/08/30 08:37:07;;;;;;;;;13.50;7.75;;;;;27.85;100.00;101473.72;5038750;28;51152;-49
2022/08/30 08:39:51;;;;;;;;;22.75;15.75;;;;;27.81;100.00;101475.78;5038990;28;51268;-49
2022/08/30 08:42:54;;;;;;;;;18.50;13.75;;;;;27.79;100.00;101474.13;5040397;28;51130;-50
2022/08/30 08:45:39;;;;;;;;;18.75;15.50;;;;;27.84;100.00;101474.69;5039946;28;51139;-50
2022/08/30 08:48:48;;;;;;;;;15.75;10.75;;;;;27.89;100.00;101472.56;5040182;28;51055;-51
2022/08/30 08:54:49;;;;;;;;;15.00;12.25;;;;;28.07;100.00;101462.25;5040378;28;51146;-50
2022/08/30 08:57:34;;;;;;;;;13.50;13.00;;;;;28.18;100.00;101468.91;5038765;28;51022;-49
2022/08/30 09:00:19;;;;;;;;;15.50;14.25;;;;;28.19;100.00;101457.00;5039826;28;51203;-50
2022/08/30 09:03:03;;;;;;;;;12.75;10.00;;;;;28.14;100.00;101460.91;5038715;28;51069;-50
2022/08/30 09:05:49;;;;;;;;;20.25;16.00;;;;;28.14;100.00;101471.84;5039622;28;51267;-48
2022/08/30 09:08:35;;;;;;;;;5.25;3.25;;;;;28.11;100.00;101482.97;5039971;28;51125;-50
2022/08/30 09:11:26;;;;;;;;;16.25;11.00;;;;;28.01;100.00;101464.53;5039448;28;51214;-50
2022/08/30 09:14:19;;;;;;;;;17.75;12.75;;;;;28.01;100.00;101475.47;5038379;28;52060;-49
2022/08/30 09:17:07;;;;;;;;;12.00;6.75;;;;;27.97;100.00;101478.41;5039460;28;51170;-49
2022/08/30 09:19:51;;;;;;;;;16.25;13.75;;;;;27.92;100.00;101483.31;5039884;28;51089;-48
2022/08/30 09:22:42;;;;;;;;;16.00;14.50;;;;;27.88;100.00;101479.00;5039312;28;51137;-49
2022/08/30 09:25:29;;;;;;;;;22.00;13.50;;;;;27.88;100.00;101481.72;5039323;28;51117;-49
2022/08/30 09:28:17;;;;;;;;;12.75;12.50;;;;;27.81;100.00;101474.91;5039469;28;51530;-49
2022/08/30 09:31:05;;;;;;;;;21.75;16.25;;;;;27.81;100.00;101478.53;5039324;28;51127;-49
2022/08/30 09:34:08;;;;;;;;;22.00;16.00;;;;;27.87;100.00;101485.44;5039593;28;51321;-50
2022/08/30 09:36:54;;;;;;;;;24.00;19.25;;;;;27.87;100.00;101485.44;5039088;28;51141;-50
2022/08/30 09:39:43;;;;;;;;;21.25;17.50;;;;;27.88;100.00;101484.47;5039480;28;51487;-49
2022/08/30 09:42:29;;;;;;;;;18.75;16.25;;;;;27.93;100.00;101487.81;5037963;28;51047;-50
2022/08/30 09:45:20;;;;;;;;;17.75;15.50;;;;;27.89;100.00;101490.81;5039288;28;51215;-50
2022/08/30 09:48:37;;;;;;;;;22.25;15.00;;;;;27.89;100.00;101494.44;5038019;28;51540;-50
2022/08/30 09:51:37;;;;;;;;;17.25;12.00;;;;;27.89;100.00;101480.75;5039109;28;51142;-49
2022/08/30 09:54:25;;;;;;;;;30.25;15.00;;;;;27.96;100.00;101495.78;5036259;28;51469;-50
2022/08/30 09:57:51;;;;;;;;;20.50;15.50;;;;;27.97;100.00;101492.06;5038064;28;51106;-48
2022/08/30 10:01:14;;;;;;;;;20.50;17.75;;;;;27.97;100.00;101488.47;5039167;28;51100;-47
2022/08/30 10:04:17;;;;;;;;;19.75;16.00;;;;;27.94;100.00;101481.31;5040699;28;51506;-49
2022/08/30 10:07:18;;;;;;;;;15.50;11.50;;;;;27.91;100.00;101467.88;5043336;28;51319;-51
2022/08/30 10:10:14;;;;;;;;;16.75;15.25;;;;;27.92;100.00;101452.31;5041649;28;51126;-50
2022/08/30 10:13:02;;;;;;;;;16.00;12.25;;;;;27.98;100.00;101441.84;5040509;28;51208;-48
2022/08/30 10:15:54;;;;;;;;;14.50;11.25;;;;;28.13;100.00;101425.44;5043019;28;51171;-50
2022/08/30 10:19:15;;;;;;;;;21.25;15.25;;;;;28.28;100.00;101426.25;5041609;28;51193;-49
2022/08/30 10:22:05;;;;;;;;;11.25;10.50;;;;;28.37;100.00;101428.38;5042979;28;51146;-49
2022/08/30 10:24:54;;;;;;;;;15.00;12.25;;;;;28.33;100.00;101425.94;5041615;28;51097;-50
2022/08/30 10:27:51;;;;;;;;;15.00;10.50;;;;;28.34;100.00;101416.75;5043062;28;51108;-51
2022/08/30 10:30:41;;;;;;;;;13.00;9.75;;;;;28.42;100.00;101417.09;5041379;28;51424;-47
2022/08/30 10:33:32;;;;;;;;;13.50;10.75;;;;;28.54;100.00;101410.78;5042805;28;51471;-46
2022/08/30 10:36:17;;;;;;;;;12.25;9.75;;;;;28.68;100.00;101406.22;5041506;28;51291;-47
2022/08/30 10:39:02;;;;;;;;;15.25;12.00;;;;;28.83;100.00;101412.50;5043026;28;51096;-49
2022/08/30 10:41:57;;;;;;;;;17.00;12.50;;;;;28.92;100.00;101398.16;5041148;28;51477;-49
2022/08/30 10:44:46;;;;;;;;;10.50;9.50;;;;;28.95;100.00;101399.78;5039165;28;51157;-50
2022/08/30 10:47:44;;;;;;;;;19.50;13.50;;;;;28.96;100.00;101391.47;5041486;28;51273;-49
2022/08/30 10:50:40;;;;;;;;;17.75;10.75;;;;;28.97;100.00;101390.47;5039542;28;51435;-51
2022/08/30 10:53:33;;;;;;;;;13.75;12.00;;;;;28.99;100.00;101395.88;5041565;28;51015;-50
2022/08/30 10:56:20;;;;;;;;;20.25;15.75;;;;;29.00;100.00;101401.22;5038819;28;51404;-49
2022/08/30 10:59:05;;;;;;;;;21.00;13.50;;;;;28.95;100.00;101391.56;5041056;28;51090;-51
2022/08/30 11:01:53;;;;;;;;;14.50;12.50;;;;;28.84;100.00;101389.59;5040829;28;51149;-51
2022/08/30 11:05:13;;;;;;;;;16.50;12.75;;;;;28.75;100.00;101392.00;5042265;28;51090;-47
2022/08/30 11:08:15;;;;;;;;;15.75;12.00;;;;;28.78;100.00;101387.28;5039276;28;51431;-51
2022/08/30 11:11:06;;;;;;;;;16.25;11.50;;;;;28.83;100.00;101371.44;5041902;28;51171;-49
2022/08/30 11:13:50;;;;;;;;;13.00;11.00;;;;;28.77;100.00;101375.47;5041883;28;51172;-48
2022/08/30 11:16:41;;;;;;;;;16.25;12.00;;;;;28.82;100.00;101375.16;5039503;28;51193;-45
2022/08/30 11:19:26;;;;;;;;;11.00;10.25;;;;;28.90;100.00;101370.84;5041436;28;51116;-47
2022/08/30 11:22:14;;;;;;;;;13.75;11.50;;;;;29.01;100.00;101369.22;5041493;28;51133;-45
2022/08/30 11:25:10;;;;;;;;;13.25;10.75;;;;;29.08;100.00;101359.59;5040889;28;51467;-46
2022/08/30 11:27:58;;;;;;;;;16.25;9.25;;;;;28.99;100.00;101366.59;5042070;28;51183;-47
2022/08/30 11:30:42;;;;;;;;;14.25;13.25;;;;;28.98;100.00;101355.75;5042400;28;51323;-46
2022/08/30 11:33:30;;;;;;;;;12.50;11.00;;;;;29.07;100.00;101338.66;5041879;28;51368;-47
2022/08/30 11:36:37;;;;;;;;;9.75;8.50;;;;;29.27;100.00;101339.03;5041864;28;51018;-48
2022/08/30 11:39:42;;;;;;;;;13.50;12.00;;;;;29.36;100.00;101331.06;5042139;28;51651;-47
2022/08/30 11:42:46;;;;;;;;;16.25;13.25;;;;;29.43;100.00;101325.97;5041686;28;51770;-49
2022/08/30 11:45:34;;;;;;;;;19.25;17.25;;;;;29.52;100.00;101328.03;5041446;28;51172;-47
2022/08/30 11:48:43;;;;;;;;;17.25;13.75;;;;;29.66;100.00;101331.59;5041245;28;51402;-50
2022/08/30 11:51:43;;;;;;;;;15.50;11.75;;;;;29.73;100.00;101321.06;5041645;28;51365;-46
2022/08/30 11:54:59;;;;;;;;;13.75;9.50;;;;;29.74;100.00;101325.53;5040071;28;51140;-47
2022/08/30 11:57:44;;;;;;;;;18.75;12.75;;;;;29.82;100.00;101329.47;5041999;28;51085;-47
2022/08/30 12:00:40;;;;;;;;;11.75;10.00;;;;;29.94;100.00;101324.06;5041028;28;51519;-47
2022/08/30 12:03:30;;;;;;;;;13.00;9.50;;;;;30.03;100.00;101317.88;5038836;28;51226;-47
2022/08/30 12:06:59;;;;;;;;;14.25;8.50;;;;;30.03;100.00;101311.50;5040466;28;51549;-47
2022/08/30 12:09:43;;;;;;;;;13.75;12.75;;;;;30.05;100.00;101304.03;5040212;28;51119;-47
2022/08/30 12:12:37;;;;;;;;;14.75;12.25;;;;;30.03;100.00;101295.03;5041429;28;51136;-49
2022/08/30 12:15:27;;;;;;;;;16.25;11.25;;;;;30.20;100.00;101293.72;5039602;28;51105;-47
2022/08/30 12:18:29;;;;;;;;;16.25;12.25;;;;;30.58;100.00;101289.84;5040294;28;51958;-47
2022/08/30 12:21:26;;;;;;;;;16.00;14.00;;;;;30.92;100.00;101287.09;5040750;28;51107;-47
2022/08/30 12:24:22;;;;;;;;;13.00;10.00;;;;;31.10;100.00;101276.47;5041254;28;51183;-47
2022/08/30 12:27:28;;;;;;;;;14.25;9.75;;;;;31.26;100.00;101278.84;5039292;28;51489;-47
2022/08/30 12:30:12;;;;;;;;;16.75;10.25;;;;;31.38;100.00;101276.94;5040749;28;51174;-48
2022/08/30 12:32:57;;;;;;;;;10.25;7.50;;;;;31.42;100.00;101270.19;5040747;28;51417;-46
2022/08/30 12:35:43;;;;;;;;;17.25;14.00;;;;;31.57;100.00;101276.28;5040604;28;51067;-48
2022/08/30 12:38:28;;;;;;;;;17.00;13.25;;;;;31.64;100.00;101269.22;5041185;28;51057;-47
2022/08/30 12:41:19;;;;;;;;;44.00;32.75;;;;;31.68;100.00;101256.16;5039281;28;51959;-48